Appleton, Washington
Current Conditions -  °F | °C
As of 4:53 PM on Saturday 22 Nov 2014 (Local Time) from KDLS Reporting Station
Clear Clear  
Wind Chill: 43°   Ceiling: Unl
Heat Index: 47°   Visibility: 10mi
Dew Point: 37°   Wind: 9mph
Humidity: 68%   Direction: 320°NW
Pressure: 30.02"   Gusts: NA
Location:  45.81°N, 121.27°W
Report Text: KDLS 230053Z AUTO 32008KT 10SM CLR 08/03 A3002 RMK AO2 SLP167 T00830028 $
Loading
Personal Weather Stations






























Interactive Weather Map New forecast layout! Learn more

10-Day Weather Forecast

Advertisements
Track Severe Weather on mobile